Time;durP1;ratioP1;P1;durP2;ratioP2;P2;SDS_P1;SDS_P2;PMS_P1;PMS_P2;Temp;Humidity;BMP_temperature;BMP_pressure;BME280_temperature;BME280_humidity;BME280_pressure;Samples;Min_cycle;Max_cycle;Signal;HPM_P1;HPM_P2
2022/12/18 00:00:42;;;;;;;31.90;14.87;;;-6.20;99.90;;;;;;5080365;28;20178;-83
2022/12/18 00:03:07;;;;;;;31.43;15.67;;;-6.20;99.90;;;;;;5079649;28;20620;-84
2022/12/18 00:05:33;;;;;;;27.10;14.37;;;-6.20;99.90;;;;;;5078898;28;20500;-83
2022/12/18 00:07:58;;;;;;;30.10;15.60;;;-6.30;99.90;;;;;;5079507;28;20541;-82
2022/12/18 00:10:24;;;;;;;30.17;14.77;;;-6.20;99.90;;;;;;5079338;28;20186;-82
2022/12/18 00:12:50;;;;;;;31.33;15.47;;;-6.30;99.90;;;;;;5079342;28;20203;-82
2022/12/18 00:15:15;;;;;;;22.13;12.40;;;-6.30;99.90;;;;;;5096743;28;20209;-83
2022/12/18 00:17:41;;;;;;;23.30;12.30;;;-6.30;99.90;;;;;;5097505;28;20171;-83
2022/12/18 00:20:07;;;;;;;19.10;11.07;;;-6.30;99.90;;;;;;5080204;28;20171;-84
2022/12/18 00:22:33;;;;;;;22.87;12.23;;;-6.30;99.90;;;;;;5079433;28;20207;-83
2022/12/18 00:24:58;;;;;;;31.33;15.10;;;-6.30;99.90;;;;;;5079529;28;20558;-82
2022/12/18 00:27:24;;;;;;;26.60;13.50;;;-6.30;99.90;;;;;;5079584;28;20241;-82
2022/12/18 00:29:50;;;;;;;28.67;14.60;;;-6.20;99.90;;;;;;5079023;28;20198;-84
2022/12/18 00:32:16;;;;;;;22.77;12.03;;;-6.20;99.90;;;;;;5097316;28;20285;-82
2022/12/18 00:34:41;;;;;;;26.57;12.70;;;-6.20;99.90;;;;;;5078632;28;20207;-82
2022/12/18 00:37:07;;;;;;;19.77;10.97;;;-6.20;99.90;;;;;;5078864;28;20550;-83
2022/12/18 00:39:32;;;;;;;18.33;9.13;;;-6.10;99.90;;;;;;5078948;28;20175;-83
2022/12/18 00:44:42;;;;;;;9.13;5.70;;;-6.10;99.90;;;;;;5097076;28;20173;-82
2022/12/18 00:47:08;;;;;;;16.50;7.73;;;-6.00;99.90;;;;;;5078632;28;20425;-83
2022/12/18 00:49:33;;;;;;;16.07;6.93;;;-6.00;99.90;;;;;;5078211;28;20218;-83
2022/12/18 00:51:59;;;;;;;15.17;8.33;;;-5.90;99.90;;;;;;5078177;28;20595;-84
2022/12/18 00:54:24;;;;;;;8.27;5.23;;;-6.00;99.90;;;;;;5096402;28;20203;-83
2022/12/18 00:56:50;;;;;;;22.23;9.87;;;-5.90;99.90;;;;;;5078156;28;20183;-83
2022/12/18 00:59:18;;;;;;;10.70;5.93;;;-5.80;99.90;;;;;;5077756;28;20179;-83
2022/12/18 01:01:44;;;;;;;9.30;5.17;;;-5.80;99.90;;;;;;5078431;28;20202;-83
2022/12/18 01:04:10;;;;;;;16.00;7.93;;;-5.70;99.90;;;;;;5096361;28;20562;-82
2022/12/18 01:06:36;;;;;;;24.30;11.23;;;-5.80;99.90;;;;;;5078709;28;20183;-84
2022/12/18 01:09:02;;;;;;;7.00;4.40;;;-5.00;99.90;;;;;;5096783;28;20604;-83
2022/12/18 01:11:27;;;;;;;21.40;9.63;;;-5.70;99.90;;;;;;5078806;28;20581;-85
2022/12/18 01:13:53;;;;;;;21.23;9.13;;;-5.70;99.90;;;;;;5097213;28;20456;-83
2022/12/18 01:16:19;;;;;;;14.57;7.77;;;-5.70;99.90;;;;;;5078285;28;20205;-82
2022/12/18 01:18:45;;;;;;;8.07;4.13;;;-5.70;99.90;;;;;;5078032;28;20425;-83
2022/12/18 01:21:14;;;;;;;22.37;10.97;;;-5.70;99.90;;;;;;5078392;28;20305;-83
2022/12/18 01:23:39;;;;;;;20.93;9.23;;;-5.70;99.90;;;;;;5078307;28;20192;-83
2022/12/18 01:26:11;;;;;;;13.27;6.97;;;-5.70;99.90;;;;;;5077802;28;20425;-83
2022/12/18 01:28:37;;;;;;;14.40;7.97;;;-5.80;99.90;;;;;;5079104;28;20707;-84
2022/12/18 01:31:21;;;;;;;20.97;10.60;;;-5.70;99.90;;;;;;5078923;28;20531;-83
2022/12/18 01:33:48;;;;;;;15.70;7.77;;;-5.80;99.90;;;;;;5078271;28;20199;-83
2022/12/18 01:36:26;;;;;;;22.07;9.63;;;-5.80;99.90;;;;;;5097358;28;20409;-83
2022/12/18 01:38:53;;;;;;;13.77;6.13;;;-5.80;99.90;;;;;;5079097;28;20408;-83
2022/12/18 01:41:24;;;;;;;10.10;5.17;;;-5.80;99.90;;;;;;5078602;28;20445;-83
2022/12/18 01:43:57;;;;;;;19.57;9.23;;;-5.80;99.90;;;;;;5078656;28;20409;-82
2022/12/18 01:46:24;;;;;;;23.17;10.33;;;-5.70;99.90;;;;;;5078913;28;20998;-84
2022/12/18 01:49:01;;;;;;;24.50;11.43;;;-5.80;99.90;;;;;;5097068;28;20420;-82
2022/12/18 01:51:29;;;;;;;10.80;5.57;;;-5.80;99.90;;;;;;5078562;28;20944;-83
2022/12/18 01:53:55;;;;;;;4.57;3.13;;;-5.80;99.90;;;;;;5079160;28;20456;-84
2022/12/18 01:56:21;;;;;;;9.00;5.90;;;-5.80;99.90;;;;;;5078934;28;20424;-84
2022/12/18 01:59:00;;;;;;;14.73;8.00;;;-5.80;99.90;;;;;;5078418;28;20191;-82
2022/12/18 02:01:26;;;;;;;15.67;8.30;;;-5.80;99.90;;;;;;5079437;28;20433;-82
2022/12/18 02:03:52;;;;;;;9.30;5.33;;;-5.80;99.90;;;;;;5079054;28;20424;-84
2022/12/18 02:06:33;;;;;;;10.40;6.07;;;-5.80;99.90;;;;;;5079137;28;20191;-83
2022/12/18 02:09:12;;;;;;;14.90;8.20;;;-5.90;99.90;;;;;;5079671;28;20413;-83
2022/12/18 02:12:00;;;;;;;15.23;7.43;;;-5.80;99.90;;;;;;5079895;28;20501;-83
2022/12/18 02:14:37;;;;;;;19.40;9.97;;;-5.70;99.90;;;;;;5081462;28;20457;-84
2022/12/18 02:17:19;;;;;;;21.70;11.33;;;-5.80;99.90;;;;;;5081088;28;20481;-84
2022/12/18 02:19:58;;;;;;;23.43;9.50;;;-5.80;99.90;;;;;;5100374;28;20403;-85
2022/12/18 02:23:08;;;;;;;18.83;10.50;;;-5.80;99.90;;;;;;5113741;28;20460;-84
2022/12/18 02:25:53;;;;;;;22.83;11.50;;;-5.80;99.90;;;;;;5095291;28;20445;-85
2022/12/18 02:28:22;;;;;;;18.53;9.67;;;-5.90;99.90;;;;;;5097358;28;20420;-83
2022/12/18 02:30:50;;;;;;;21.73;11.00;;;-5.90;99.90;;;;;;5096966;28;20444;-79
2022/12/18 02:33:17;;;;;;;19.00;10.43;;;-5.90;99.90;;;;;;5099933;28;20402;-83
2022/12/18 02:35:45;;;;;;;23.97;10.70;;;-6.00;99.90;;;;;;5086060;28;20531;-82
2022/12/18 02:38:11;;;;;;;20.73;11.00;;;-6.00;99.90;;;;;;5080238;28;20943;-84
2022/12/18 02:40:38;;;;;;;17.73;9.97;;;-6.00;99.90;;;;;;5081653;28;20444;-83
2022/12/18 02:43:13;;;;;;;23.37;11.43;;;-6.00;99.90;;;;;;5081950;28;20856;-82
2022/12/18 02:45:51;;;;;;;23.70;9.93;;;-6.10;99.90;;;;;;5081573;28;20463;-83
2022/12/18 02:48:22;;;;;;;24.23;11.57;;;-6.10;99.90;;;;;;5099556;28;20405;-83
2022/12/18 02:51:30;;;;;;;20.33;11.20;;;-6.10;99.90;;;;;;5081280;28;20412;-82
2022/12/18 02:54:06;;;;;;;18.03;9.77;;;-6.10;99.90;;;;;;5033912;28;20529;-83
2022/12/18 02:56:44;;;;;;;15.50;7.10;;;-6.10;99.90;;;;;;5081444;28;20409;-82
2022/12/18 02:59:18;;;;;;;16.50;8.47;;;-6.10;99.90;;;;;;5080420;28;20508;-84
2022/12/18 03:01:54;;;;;;;20.97;10.30;;;-6.10;99.90;;;;;;5080691;28;20458;-83
2022/12/18 03:04:31;;;;;;;20.10;10.90;;;-6.10;99.90;;;;;;5081423;28;20436;-82
2022/12/18 03:07:01;;;;;;;27.10;12.70;;;-6.10;99.90;;;;;;5081419;28;21022;-83
2022/12/18 03:09:34;;;;;;;23.37;11.47;;;-6.10;99.90;;;;;;5081731;28;20417;-84
2022/12/18 03:12:24;;;;;;;13.80;6.63;;;-6.10;99.90;;;;;;5081784;28;20433;-84
2022/12/18 03:15:02;;;;;;;19.40;10.23;;;-6.10;99.90;;;;;;5082580;28;20542;-84
2022/12/18 03:17:30;;;;;;;12.33;5.57;;;-6.00;99.90;;;;;;5100473;28;20425;-86
2022/12/18 03:20:01;;;;;;;14.30;7.03;;;-6.10;99.90;;;;;;5082165;28;20504;-84
2022/12/18 03:22:29;;;;;;;18.90;10.07;;;-6.00;99.90;;;;;;5081902;28;20433;-83
2022/12/18 03:24:57;;;;;;;13.57;6.90;;;-5.90;99.90;;;;;;5081264;28;20425;-83
2022/12/18 03:27:25;;;;;;;13.67;5.33;;;-5.90;99.90;;;;;;5081187;28;20417;-84
2022/12/18 03:30:07;;;;;;;18.40;7.77;;;-5.90;99.90;;;;;;5081488;28;20476;-83
2022/12/18 03:32:43;;;;;;;23.10;10.33;;;-5.90;99.90;;;;;;5080403;28;20484;-83
2022/12/18 03:35:11;;;;;;;12.17;6.00;;;-5.90;99.90;;;;;;5098923;28;20517;-83
2022/12/18 03:37:37;;;;;;;18.93;8.57;;;-5.80;99.90;;;;;;5080366;28;20418;-83
2022/12/18 03:40:04;;;;;;;16.57;9.27;;;-5.80;99.90;;;;;;5080106;28;20420;-83
2022/12/18 03:42:53;;;;;;;25.17;11.87;;;-5.70;99.90;;;;;;5080505;28;20195;-83
2022/12/18 03:45:26;;;;;;;12.47;6.27;;;-5.70;99.90;;;;;;5080899;28;20467;-84
2022/12/18 03:48:11;;;;;;;22.37;10.33;;;-5.70;99.90;;;;;;5081002;28;20499;-84
2022/12/18 03:50:49;;;;;;;22.27;11.67;;;-5.70;99.90;;;;;;5080198;28;20451;-84
2022/12/18 03:53:33;;;;;;;18.87;8.53;;;-5.70;99.90;;;;;;5080064;28;20452;-84
2022/12/18 03:56:00;;;;;;;18.27;10.27;;;-5.70;99.90;;;;;;5099086;28;20445;-83
2022/12/18 03:58:27;;;;;;;15.03;8.10;;;-5.60;99.90;;;;;;5080480;28;20441;-83
2022/12/18 04:00:56;;;;;;;11.03;4.70;;;-5.70;99.90;;;;;;5098874;28;20409;-83
2022/12/18 04:03:23;;;;;;;8.93;5.03;;;-5.70;99.90;;;;;;5080611;28;20425;-83
2022/12/18 04:05:53;;;;;;;10.47;4.87;;;-5.80;99.90;;;;;;5080523;28;20505;-82
2022/12/18 04:08:21;;;;;;;18.53;7.80;;;-5.70;99.90;;;;;;5080976;28;20412;-83
2022/12/18 04:10:47;;;;;;;20.13;10.00;;;-5.70;99.90;;;;;;5080565;28;20788;-82
2022/12/18 04:13:12;;;;;;;18.37;10.23;;;-5.70;99.90;;;;;;5080097;28;20419;-83
2022/12/18 04:15:39;;;;;;;17.33;9.27;;;-5.70;99.90;;;;;;5080554;28;20185;-83
2022/12/18 04:18:04;;;;;;;10.33;4.83;;;-5.70;99.90;;;;;;5080173;28;20211;-84
2022/12/18 04:20:30;;;;;;;11.87;5.90;;;-5.70;99.90;;;;;;5098261;28;20410;-82
2022/12/18 04:22:55;;;;;;;19.33;9.23;;;-5.70;99.90;;;;;;5080100;28;20682;-83
2022/12/18 04:25:21;;;;;;;22.83;11.50;;;-5.80;99.90;;;;;;5080923;28;20178;-83
2022/12/18 04:27:46;;;;;;;23.27;8.73;;;-5.80;99.90;;;;;;5081071;28;20643;-82
2022/12/18 04:30:12;;;;;;;23.27;11.60;;;-5.80;99.90;;;;;;5098344;28;20195;-84
2022/12/18 04:32:38;;;;;;;29.47;13.70;;;-5.90;99.90;;;;;;5080345;28;20294;-82
2022/12/18 04:35:06;;;;;;;21.53;12.10;;;-5.90;99.90;;;;;;5080689;28;20211;-82
2022/12/18 04:37:32;;;;;;;28.23;12.80;;;-6.00;99.90;;;;;;5080253;28;20205;-82
2022/12/18 04:39:57;;;;;;;22.27;10.67;;;-6.00;99.90;;;;;;5079576;28;20417;-82
2022/12/18 04:42:23;;;;;;;23.47;11.03;;;-6.00;99.90;;;;;;5079874;28;20202;-83
2022/12/18 04:44:49;;;;;;;24.40;11.70;;;-6.00;99.90;;;;;;5079971;28;20270;-83
2022/12/18 04:47:14;;;;;;;20.93;10.43;;;-6.00;99.90;;;;;;5079620;28;20542;-83
2022/12/18 04:49:40;;;;;;;27.40;12.30;;;-6.00;99.90;;;;;;5079560;28;20189;-83
2022/12/18 04:52:07;;;;;;;19.57;9.67;;;-6.00;99.90;;;;;;5096940;28;20272;-83
2022/12/18 04:54:32;;;;;;;23.30;11.63;;;-6.00;99.90;;;;;;5078993;28;20259;-82
2022/12/18 04:56:58;;;;;;;20.90;10.03;;;-6.00;99.90;;;;;;5079234;28;20425;-84
2022/12/18 04:59:23;;;;;;;24.17;11.80;;;-6.10;99.90;;;;;;5079622;28;20269;-86
2022/12/18 05:01:49;;;;;;;25.20;11.83;;;-6.10;99.90;;;;;;5080489;28;20579;-82
2022/12/18 05:04:14;;;;;;;19.07;10.10;;;-6.10;99.90;;;;;;5079329;28;20183;-83
2022/12/18 05:06:40;;;;;;;22.60;11.03;;;-6.10;99.90;;;;;;5079039;28;20244;-84
2022/12/18 05:09:06;;;;;;;22.37;10.87;;;-6.10;99.90;;;;;;5079653;28;20183;-83
2022/12/18 05:11:31;;;;;;;19.63;10.90;;;-6.10;99.90;;;;;;5079800;28;20201;-82
2022/12/18 05:13:57;;;;;;;22.63;11.30;;;-6.00;99.90;;;;;;5080551;28;20267;-83
2022/12/18 05:16:22;;;;;;;24.37;11.67;;;-6.00;99.90;;;;;;5080343;28;20174;-81
2022/12/18 05:18:48;;;;;;;30.17;13.43;;;-6.00;99.90;;;;;;5080975;28;20527;-83
2022/12/18 05:21:14;;;;;;;24.00;11.30;;;-6.10;99.90;;;;;;5080127;28;20225;-83
2022/12/18 05:23:39;;;;;;;25.43;12.77;;;-6.00;99.90;;;;;;5098078;28;20661;-84
2022/12/18 05:26:06;;;;;;;24.30;12.10;;;-6.00;99.90;;;;;;5078973;28;20243;-83
2022/12/18 05:28:34;;;;;;;27.57;13.10;;;-6.00;99.90;;;;;;5079312;28;20179;-84
2022/12/18 05:31:02;;;;;;;28.23;13.27;;;-6.10;99.90;;;;;;5079416;28;20475;-82
2022/12/18 05:33:30;;;;;;;25.30;12.53;;;-6.10;99.90;;;;;;5079135;28;20436;-83
2022/12/18 05:35:58;;;;;;;25.13;11.70;;;-6.10;99.90;;;;;;5079112;28;20466;-82
2022/12/18 05:38:25;;;;;;;26.10;13.17;;;-6.10;99.90;;;;;;5079085;28;20437;-83
2022/12/18 05:40:52;;;;;;;24.83;12.97;;;-6.10;99.90;;;;;;5079434;28;20420;-84
2022/12/18 05:43:19;;;;;;;24.83;12.77;;;-6.20;99.90;;;;;;5080235;28;20440;-83
2022/12/18 05:45:45;;;;;;;24.03;12.57;;;-6.10;99.90;;;;;;5079533;28;20413;-84
2022/12/18 05:48:12;;;;;;;22.47;10.50;;;-6.10;99.90;;;;;;5079166;28;20462;-83
2022/12/18 05:50:40;;;;;;;21.93;11.70;;;-6.10;99.90;;;;;;5079056;28;20426;-83
2022/12/18 05:53:06;;;;;;;28.80;13.90;;;-6.00;99.90;;;;;;5078258;28;20499;-83
2022/12/18 05:55:36;;;;;;;21.03;10.43;;;-6.00;99.90;;;;;;5078024;28;20461;-83
2022/12/18 05:58:03;;;;;;;26.87;13.53;;;-6.10;99.90;;;;;;5078767;28;20421;-84
2022/12/18 06:00:28;;;;;;;23.37;11.30;;;-6.00;99.90;;;;;;5078981;28;20417;-83
2022/12/18 06:02:54;;;;;;;17.50;10.13;;;-6.10;99.90;;;;;;5078876;28;20443;-83
2022/12/18 06:05:20;;;;;;;16.30;8.33;;;-6.10;99.90;;;;;;5078432;28;20182;-83
2022/12/18 06:07:45;;;;;;;18.10;10.20;;;-6.00;99.90;;;;;;5079410;28;20175;-83
2022/12/18 06:10:11;;;;;;;24.37;11.63;;;-5.90;99.90;;;;;;5078330;28;20541;-84
2022/12/18 06:12:37;;;;;;;26.47;12.83;;;-5.90;99.90;;;;;;5080378;28;20205;-82
2022/12/18 06:15:03;;;;;;;19.40;8.80;;;-5.90;99.90;;;;;;5082620;28;20206;-83
2022/12/18 06:17:30;;;;;;;26.43;11.83;;;-5.80;99.90;;;;;;5082702;28;20179;-84
2022/12/18 06:19:56;;;;;;;20.60;10.93;;;-5.80;99.90;;;;;;5101402;28;20408;-83
2022/12/18 06:22:22;;;;;;;11.97;6.00;;;-5.70;99.90;;;;;;5100617;28;20435;-82
2022/12/18 06:24:47;;;;;;;19.83;10.20;;;-5.60;99.90;;;;;;5082759;28;20183;-83
2022/12/18 06:27:13;;;;;;;19.20;10.00;;;-5.70;99.90;;;;;;5083348;28;20743;-84
2022/12/18 06:29:38;;;;;;;20.63;11.10;;;-5.60;99.90;;;;;;5083129;28;20331;-83
2022/12/18 06:32:04;;;;;;;18.67;9.00;;;-5.60;99.90;;;;;;5082743;28;20203;-83
2022/12/18 06:34:31;;;;;;;17.70;9.07;;;-5.60;99.90;;;;;;5082868;28;20615;-83
2022/12/18 06:36:56;;;;;;;17.73;10.00;;;-5.60;99.90;;;;;;5082922;28;20233;-83
2022/12/18 06:39:22;;;;;;;15.80;7.33;;;-5.60;99.90;;;;;;5083208;28;20409;-83
2022/12/18 06:41:47;;;;;;;26.20;12.67;;;-5.60;99.90;;;;;;5082831;28;20200;-85
2022/12/18 06:44:13;;;;;;;15.87;8.47;;;-5.60;99.90;;;;;;5083152;28;20611;-83
2022/12/18 06:46:39;;;;;;;21.03;9.70;;;-5.60;99.90;;;;;;5100656;28;20175;-83
2022/12/18 06:49:04;;;;;;;25.47;12.40;;;-5.60;99.90;;;;;;5081814;28;20183;-83
2022/12/18 06:51:30;;;;;;;18.67;9.50;;;-5.60;99.90;;;;;;5082256;28;20293;-82
2022/12/18 06:53:56;;;;;;;15.77;8.20;;;-5.60;99.90;;;;;;5100300;28;20248;-83
2022/12/18 06:56:21;;;;;;;23.47;10.47;;;-5.60;99.90;;;;;;5082405;28;20646;-83
2022/12/18 06:58:47;;;;;;;15.93;8.80;;;-5.60;99.90;;;;;;5082928;28;20187;-83
2022/12/18 07:01:13;;;;;;;20.60;11.07;;;-5.60;99.90;;;;;;5082674;28;20231;-82
2022/12/18 07:03:40;;;;;;;20.30;10.97;;;-5.60;99.90;;;;;;5100234;28;20187;-83
2022/12/18 07:06:06;;;;;;;10.63;6.67;;;-5.60;99.90;;;;;;5100291;28;20418;-83
2022/12/18 07:08:32;;;;;;;17.23;9.90;;;-5.60;99.90;;;;;;5081428;28;20452;-83
2022/12/18 07:10:58;;;;;;;20.70;10.70;;;-5.60;99.90;;;;;;5099620;28;20428;-82
2022/12/18 07:13:23;;;;;;;27.90;13.73;;;-5.50;99.90;;;;;;5080936;28;20917;-82
2022/12/18 07:15:49;;;;;;;18.57;10.33;;;-5.50;99.90;;;;;;5081499;28;20170;-84
2022/12/18 07:18:15;;;;;;;17.20;9.43;;;-5.50;99.90;;;;;;5100232;28;20182;-83
2022/12/18 07:20:40;;;;;;;28.47;14.30;;;-5.50;99.90;;;;;;5081241;28;20175;-82
2022/12/18 07:23:06;;;;;;;29.63;14.27;;;-5.50;99.90;;;;;;5082959;28;20179;-84
2022/12/18 07:25:36;;;;;;;21.97;11.83;;;-5.50;99.90;;;;;;5100702;28;20616;-84
2022/12/18 07:28:02;;;;;;;18.00;10.43;;;-5.50;99.90;;;;;;5081566;28;20191;-84
2022/12/18 07:30:28;;;;;;;27.00;13.83;;;-5.50;99.90;;;;;;5099395;28;20440;-82
2022/12/18 07:32:53;;;;;;;24.90;12.80;;;-5.50;99.90;;;;;;5080984;28;20437;-82
2022/12/18 07:35:19;;;;;;;25.27;13.67;;;-5.50;99.90;;;;;;5081054;28;20206;-83
2022/12/18 07:37:45;;;;;;;23.03;12.13;;;-5.60;99.90;;;;;;5081281;28;20655;-83
2022/12/18 07:40:11;;;;;;;19.83;8.97;;;-5.60;99.90;;;;;;5080798;28;20186;-84
2022/12/18 07:42:37;;;;;;;27.40;11.53;;;-5.60;99.90;;;;;;5080437;28;20202;-83
2022/12/18 07:45:03;;;;;;;19.37;8.63;;;-5.60;99.90;;;;;;5080473;28;20431;-83
2022/12/18 07:47:29;;;;;;;22.83;11.90;;;-5.60;99.90;;;;;;5080826;28;20187;-83
2022/12/18 07:49:54;;;;;;;19.27;10.37;;;-5.50;99.90;;;;;;5080256;28;20421;-82
2022/12/18 07:52:21;;;;;;;21.43;11.87;;;-5.50;99.90;;;;;;5079972;28;20207;-83
2022/12/18 07:54:48;;;;;;;21.43;10.07;;;-5.50;99.90;;;;;;5079209;28;20207;-84
2022/12/18 07:57:15;;;;;;;14.77;7.97;;;-5.40;99.90;;;;;;5078661;28;20429;-83
2022/12/18 07:59:40;;;;;;;19.17;8.00;;;-5.40;99.90;;;;;;5078695;28;20424;-84
2022/12/18 08:02:06;;;;;;;23.93;11.07;;;-5.40;99.90;;;;;;5078958;28;20441;-83
2022/12/18 08:04:31;;;;;;;23.73;11.67;;;-5.40;99.90;;;;;;5079963;28;20194;-85
2022/12/18 08:06:57;;;;;;;18.50;10.03;;;-5.30;99.90;;;;;;5080492;28;20183;-83
2022/12/18 08:09:23;;;;;;;21.20;11.40;;;-5.30;99.90;;;;;;5079097;28;20190;-84
2022/12/18 08:11:48;;;;;;;7.30;4.00;;;-5.30;99.90;;;;;;5079029;28;20209;-85
2022/12/18 08:14:14;;;;;;;24.93;11.37;;;-5.20;99.90;;;;;;5078982;28;20266;-84
2022/12/18 08:16:40;;;;;;;12.50;7.63;;;-5.20;99.90;;;;;;5082212;28;20178;-84
2022/12/18 08:19:05;;;;;;;29.43;13.20;;;-5.20;99.90;;;;;;5079822;28;20202;-83
2022/12/18 08:21:32;;;;;;;26.93;13.23;;;-5.20;99.90;;;;;;5079399;28;20199;-85
2022/12/18 08:24:00;;;;;;;17.07;9.03;;;-5.00;99.90;;;;;;5079963;28;20187;-84
2022/12/18 08:26:27;;;;;;;5.93;4.07;;;-5.00;99.90;;;;;;5081664;28;20424;-84
2022/12/18 08:28:55;;;;;;;18.00;9.17;;;-4.90;99.90;;;;;;5078578;28;20417;-85
2022/12/18 08:31:20;;;;;;;13.53;6.40;;;-4.90;99.90;;;;;;5097050;28;20547;-84
2022/12/18 08:33:49;;;;;;;22.27;10.90;;;-4.90;99.90;;;;;;5078443;28;20485;-84
2022/12/18 08:36:15;;;;;;;19.90;10.13;;;-4.80;99.90;;;;;;5077835;28;20206;-83
2022/12/18 08:38:40;;;;;;;16.93;9.70;;;-4.80;99.90;;;;;;5096683;28;20413;-83
2022/12/18 08:41:09;;;;;;;16.37;8.37;;;-4.80;99.90;;;;;;5078458;28;20289;-83
2022/12/18 08:46:20;;;;;;;17.33;8.10;;;-4.70;99.90;;;;;;5097553;28;20396;-84
2022/12/18 08:48:46;;;;;;;15.07;8.13;;;-2.90;99.90;;;;;;5078311;28;20416;-84
2022/12/18 08:51:12;;;;;;;21.73;12.30;;;-4.60;99.90;;;;;;5078423;28;20436;-84
2022/12/18 08:53:38;;;;;;;24.20;13.07;;;-4.50;99.90;;;;;;5078330;28;20474;-83
2022/12/18 08:56:05;;;;;;;19.33;10.17;;;-4.50;99.90;;;;;;5096394;28;20190;-84
2022/12/18 08:58:30;;;;;;;25.43;12.43;;;-4.40;99.90;;;;;;5078267;28;20514;-85
2022/12/18 09:01:01;;;;;;;24.43;13.23;;;-4.30;99.90;;;;;;5078878;28;20458;-85
2022/12/18 09:03:27;;;;;;;21.57;11.83;;;-4.30;99.90;;;;;;5078462;28;20225;-85
2022/12/18 09:05:54;;;;;;;11.77;6.33;;;-4.30;99.90;;;;;;5079032;28;20525;-84
2022/12/18 09:08:19;;;;;;;16.67;9.97;;;-4.30;99.90;;;;;;5077676;28;20448;-84
2022/12/18 09:10:47;;;;;;;16.50;8.70;;;-4.20;99.90;;;;;;5077725;28;20640;-84
2022/12/18 09:13:15;;;;;;;15.93;8.70;;;-4.20;99.90;;;;;;5077988;28;20261;-84
2022/12/18 09:15:46;;;;;;;17.03;8.10;;;-4.10;99.90;;;;;;5077429;28;20462;-85
2022/12/18 09:18:13;;;;;;;14.00;6.47;;;-4.10;99.90;;;;;;5096165;28;20831;-84
2022/12/18 09:20:38;;;;;;;14.43;8.00;;;-4.00;99.90;;;;;;5078374;28;20901;-84
2022/12/18 09:23:05;;;;;;;20.93;11.37;;;-3.90;99.90;;;;;;5077981;28;20453;-83
2022/12/18 09:25:33;;;;;;;21.80;11.70;;;-3.90;99.90;;;;;;5078058;28;20173;-84
2022/12/18 09:28:00;;;;;;;23.43;11.50;;;-3.80;99.90;;;;;;5094897;28;20428;-86
2022/12/18 09:30:25;;;;;;;19.67;9.53;;;-3.70;99.90;;;;;;5076032;28;20456;-84
2022/12/18 09:32:51;;;;;;;17.80;9.03;;;-3.60;99.90;;;;;;5075950;28;20789;-86
2022/12/18 09:35:17;;;;;;;17.73;10.30;;;-3.50;99.90;;;;;;5075693;28;20465;-84
2022/12/18 09:37:42;;;;;;;15.97;8.70;;;-3.50;99.90;;;;;;5075555;28;20179;-85
2022/12/18 09:40:14;;;;;;;12.63;5.77;;;-3.40;99.90;;;;;;5075776;28;20666;-86
2022/12/18 09:42:40;;;;;;;20.57;10.93;;;-3.40;99.90;;;;;;5075640;28;20703;-85
2022/12/18 09:45:14;;;;;;;21.47;10.83;;;-3.30;99.90;;;;;;5075914;28;20458;-84
2022/12/18 09:47:42;;;;;;;19.17;9.60;;;-3.30;99.90;;;;;;5080104;28;20196;-87
2022/12/18 09:50:25;;;;;;;18.57;9.67;;;-3.20;99.90;;;;;;5079625;28;20935;-84
2022/12/18 09:52:55;;;;;;;21.03;10.63;;;-3.10;99.90;;;;;;5079753;28;20441;-85
2022/12/18 09:55:44;;;;;;;19.67;10.10;;;-3.10;99.90;;;;;;5079603;28;20569;-84
2022/12/18 09:58:22;;;;;;;12.50;5.30;;;-3.00;99.90;;;;;;5079616;28;20811;-87
2022/12/18 10:00:51;;;;;;;13.40;6.63;;;-3.00;99.90;;;;;;5079500;28;20414;-86
2022/12/18 10:03:16;;;;;;;24.67;12.77;;;-2.90;99.90;;;;;;5097574;28;20412;-86
2022/12/18 10:06:01;;;;;;;16.03;9.37;;;-2.90;99.90;;;;;;5079546;28;20497;-86
2022/12/18 10:08:51;;;;;;;24.87;12.00;;;-2.80;99.90;;;;;;5079751;28;20177;-85
2022/12/18 10:11:54;;;;;;;22.20;11.10;;;-2.70;99.90;;;;;;5079311;28;20533;-84
2022/12/18 10:14:38;;;;;;;20.67;11.50;;;-2.70;99.90;;;;;;5079265;28;20541;-86
2022/12/18 10:17:15;;;;;;;13.07;7.43;;;-2.60;99.90;;;;;;5082148;28;20404;-88
2022/12/18 10:19:55;;;;;;;19.53;10.80;;;-2.50;99.90;;;;;;5079880;28;20409;-85
2022/12/18 10:22:47;;;;;;;24.60;12.80;;;-2.50;99.90;;;;;;5079609;28;20435;-86
2022/12/18 10:25:41;;;;;;;26.13;13.83;;;-2.40;99.90;;;;;;5079163;28;20400;-84
2022/12/18 10:28:13;;;;;;;19.33;9.50;;;-2.30;99.90;;;;;;5078977;28;20899;-86
2022/12/18 10:30:40;;;;;;;25.13;13.80;;;-2.30;99.90;;;;;;5078726;28;20434;-85
2022/12/18 10:33:15;;;;;;;19.77;10.30;;;-2.20;99.90;;;;;;5078876;28;20434;-86
2022/12/18 10:35:42;;;;;;;13.67;8.27;;;-2.20;99.90;;;;;;5078847;28;20539;-85
2022/12/18 10:38:22;;;;;;;21.53;10.50;;;-2.20;99.90;;;;;;5078961;28;20413;-86
2022/12/18 10:41:18;;;;;;;15.87;8.07;;;-2.20;99.90;;;;;;5078702;28;20448;-85
2022/12/18 10:43:44;;;;;;;13.37;7.80;;;-2.10;99.90;;;;;;5048078;28;20476;-85
2022/12/18 10:46:09;;;;;;;20.63;10.00;;;-2.10;99.90;;;;;;5078907;28;20412;-85
2022/12/18 10:48:49;;;;;;;14.97;7.30;;;-2.10;99.90;;;;;;5078987;28;20185;-86
2022/12/18 10:51:27;;;;;;;19.40;11.43;;;-2.00;99.90;;;;;;5078632;28;20669;-86
2022/12/18 10:54:06;;;;;;;21.17;10.90;;;-2.00;99.90;;;;;;5078653;28;20452;-86
2022/12/18 10:56:34;;;;;;;17.63;10.33;;;-2.00;99.90;;;;;;5079309;28;20746;-85
2022/12/18 10:59:03;;;;;;;20.93;10.60;;;-1.90;99.90;;;;;;5077819;28;20428;-85
2022/12/18 11:01:48;;;;;;;20.40;11.17;;;-1.90;99.90;;;;;;5078223;28;20522;-86
2022/12/18 11:04:31;;;;;;;18.93;9.63;;;-1.90;99.90;;;;;;5078534;28;20409;-86
2022/12/18 11:06:58;;;;;;;16.87;9.03;;;-1.80;99.90;;;;;;5078556;28;20787;-85
2022/12/18 11:09:32;;;;;;;20.23;10.97;;;-1.80;99.90;;;;;;5078316;28;20416;-85
2022/12/18 11:12:16;;;;;;;15.73;8.17;;;-1.70;99.90;;;;;;5096040;28;20766;-85
2022/12/18 11:14:48;;;;;;;22.10;11.07;;;-1.70;99.90;;;;;;5078066;28;20444;-87
2022/12/18 11:17:28;;;;;;;30.57;14.57;;;-1.70;99.90;;;;;;5078312;28;20417;-86
2022/12/18 11:19:59;;;;;;;18.00;10.33;;;-1.70;99.90;;;;;;5077888;28;20890;-85
2022/12/18 11:22:28;;;;;;;18.53;11.27;;;-1.60;99.90;;;;;;5078056;28;20468;-86
2022/12/18 11:24:56;;;;;;;18.03;10.03;;;-1.60;99.90;;;;;;5078099;28;20793;-85
2022/12/18 11:27:22;;;;;;;15.67;7.93;;;-1.60;99.90;;;;;;5077876;28;20412;-86
2022/12/18 11:29:50;;;;;;;22.33;11.93;;;-1.50;99.90;;;;;;5077847;28;20437;-86
2022/12/18 11:32:47;;;;;;;24.57;13.40;;;-1.50;99.90;;;;;;5078178;28;20206;-86
2022/12/18 11:35:25;;;;;;;26.50;13.40;;;-1.40;99.90;;;;;;5095902;28;20825;-85
2022/12/18 11:37:59;;;;;;;17.97;10.13;;;-1.40;99.90;;;;;;5078279;28;20393;-85
2022/12/18 11:40:34;;;;;;;18.83;10.07;;;-1.40;99.90;;;;;;5078898;28;20405;-85
2022/12/18 11:43:40;;;;;;;24.27;12.63;;;-1.30;99.90;;;;;;5078545;28;20574;-85
2022/12/18 11:46:17;;;;;;;24.53;11.93;;;-1.30;99.90;;;;;;5028894;28;20452;-86
2022/12/18 11:48:54;;;;;;;25.43;14.47;;;-1.30;99.90;;;;;;5078569;28;20431;-85
2022/12/18 11:51:41;;;;;;;20.07;9.33;;;-1.20;99.90;;;;;;5077998;28;20440;-87
2022/12/18 11:54:14;;;;;;;24.03;12.73;;;-0.90;99.90;;;;;;5077859;28;20453;-86
2022/12/18 11:56:49;;;;;;;25.33;14.13;;;-1.20;99.90;;;;;;5077623;28;20413;-86
2022/12/18 11:59:39;;;;;;;29.97;15.97;;;-1.20;99.90;;;;;;5077679;28;20897;-87
2022/12/18 12:02:46;;;;;;;27.73;14.60;;;-1.10;99.90;;;;;;5077628;28;20433;-86
2022/12/18 12:05:17;;;;;;;26.60;14.80;;;-1.20;99.90;;;;;;5078398;28;20454;-87
2022/12/18 12:08:04;;;;;;;26.90;15.57;;;-1.10;99.90;;;;;;5077457;28;20409;-86
2022/12/18 12:10:46;;;;;;;17.33;9.23;;;-1.10;99.90;;;;;;5076643;28;21028;-86
2022/12/18 12:13:18;;;;;;;27.70;15.63;;;-1.10;99.90;;;;;;5077830;28;20455;-86
2022/12/18 12:16:04;;;;;;;22.10;11.50;;;-1.10;99.90;;;;;;5078009;28;20457;-86
2022/12/18 12:18:50;;;;;;;17.97;9.93;;;-1.10;99.90;;;;;;5080309;28;20455;-86
2022/12/18 12:21:38;;;;;;;30.40;14.47;;;-1.00;99.90;;;;;;5077538;28;20510;-86
2022/12/18 12:24:23;;;;;;;18.53;10.00;;;-1.00;99.90;;;;;;5077878;28;20417;-85
2022/12/18 12:27:06;;;;;;;17.43;10.10;;;-1.00;99.90;;;;;;5078152;28;20421;-86
2022/12/18 12:29:46;;;;;;;26.30;14.43;;;-1.00;99.90;;;;;;5077882;28;20425;-85
2022/12/18 12:32:44;;;;;;;29.87;15.17;;;-1.00;99.90;;;;;;5111699;27;20568;-48
2022/12/18 12:35:51;;;;;;;25.67;13.67;;;-0.90;99.90;;;;;;5099238;28;20504;-48
2022/12/18 12:38:25;;;;;;;19.70;11.13;;;-0.90;99.90;;;;;;5091277;28;20412;-48
2022/12/18 12:41:04;;;;;;;23.00;13.70;;;-0.90;99.90;;;;;;5089589;28;20437;-48
2022/12/18 12:43:44;;;;;;;22.03;12.40;;;-0.90;99.90;;;;;;5090900;28;20397;-43
2022/12/18 12:46:12;;;;;;;27.57;12.83;;;-0.90;99.90;;;;;;5090886;28;20397;-44
2022/12/18 12:48:48;;;;;;;27.20;15.53;;;-0.80;99.90;;;;;;5091364;28;20420;-43
2022/12/18 12:51:37;;;;;;;18.37;9.60;;;-0.90;99.90;;;;;;5091045;28;20472;-43
2022/12/18 12:54:06;;;;;;;19.83;10.67;;;-0.80;99.90;;;;;;5090754;28;20402;-43